createdAt,value
2023-05-25T00:01:09.919Z,4.47
2023-05-25T00:03:40.435Z,4.05
2023-05-25T00:06:08.280Z,4.07
2023-05-25T00:08:35.706Z,4.55
2023-05-25T00:11:03.075Z,4.45
2023-05-25T00:13:30.582Z,4.53
2023-05-25T00:15:58.191Z,4.47
2023-05-25T00:18:25.550Z,4.70
2023-05-25T00:20:55.722Z,4.60
2023-05-25T00:23:23.038Z,5.22
2023-05-25T00:25:50.428Z,4.80
2023-05-25T00:28:17.841Z,4.60
2023-05-25T00:30:45.191Z,4.88
2023-05-25T00:33:13.188Z,4.70
2023-05-25T00:35:42.843Z,4.70
2023-05-25T00:38:14.555Z,4.70
2023-05-25T00:40:41.869Z,5.22
2023-05-25T00:43:09.382Z,5.00
2023-05-25T00:45:36.870Z,5.28
2023-05-25T00:48:04.551Z,4.78
2023-05-25T00:50:42.473Z,5.23
2023-05-25T00:53:10.673Z,4.95
2023-05-25T00:56:00.225Z,5.38
2023-05-25T00:58:27.868Z,5.10
2023-05-25T01:00:56.347Z,4.60
2023-05-25T01:03:28.153Z,4.97
2023-05-25T01:05:56.183Z,4.75
2023-05-25T01:08:23.527Z,5.30
2023-05-25T01:10:52.607Z,4.75
2023-05-25T01:13:20.604Z,5.10
2023-05-25T01:15:48.230Z,5.07
2023-05-25T01:18:16.117Z,5.15
2023-05-25T01:20:57.300Z,5.78
2023-05-25T01:23:28.407Z,5.28
2023-05-25T01:25:57.462Z,5.10
2023-05-25T01:28:36.194Z,4.97
2023-05-25T01:31:04.242Z,5.38
2023-05-25T01:33:31.573Z,4.82
2023-05-25T01:35:59.211Z,5.25
2023-05-25T01:38:26.947Z,5.00
2023-05-25T01:40:54.423Z,5.23
2023-05-25T01:43:22.511Z,5.55
2023-05-25T01:45:49.815Z,5.20
2023-05-25T01:48:20.215Z,5.38
2023-05-25T01:51:01.586Z,5.22
2023-05-25T01:53:37.200Z,5.40
2023-05-25T01:56:08.960Z,4.90
2023-05-25T01:58:42.149Z,4.78
2023-05-25T02:01:10.173Z,4.60
2023-05-25T02:03:38.312Z,4.97
2023-05-25T02:06:06.149Z,4.87
2023-05-25T02:08:35.614Z,5.13
2023-05-25T02:11:03.583Z,5.30
2023-05-25T02:13:31.078Z,5.38
2023-05-25T02:15:58.545Z,5.10
2023-05-25T02:18:26.526Z,5.40
2023-05-25T02:20:54.980Z,4.80
2023-05-25T02:23:22.381Z,5.05
2023-05-25T02:25:51.856Z,4.82
2023-05-25T02:28:19.538Z,4.75
2023-05-25T02:30:46.997Z,5.27
2023-05-25T02:33:14.450Z,4.97
2023-05-25T02:35:42.192Z,5.20
2023-05-25T02:38:11.858Z,5.32
2023-05-25T02:40:39.434Z,5.50
2023-05-25T02:43:06.787Z,4.87
2023-05-25T02:45:34.309Z,5.10
2023-05-25T02:48:01.652Z,4.80
2023-05-25T02:50:29.556Z,5.10
2023-05-25T02:52:58.591Z,5.00
2023-05-25T02:55:26.272Z,5.03
2023-05-25T02:57:54.328Z,5.32
2023-05-25T03:00:51.994Z,5.25
2023-05-25T03:03:19.573Z,5.13
2023-05-25T03:05:47.432Z,4.72
2023-05-25T03:08:15.456Z,5.57
2023-05-25T03:10:42.983Z,5.63
2023-05-25T03:13:10.575Z,5.38
2023-05-25T03:15:40.177Z,5.05
2023-05-25T03:18:07.747Z,5.07
2023-05-25T03:20:38.467Z,5.13
2023-05-25T03:23:06.046Z,5.28
2023-05-25T03:25:34.717Z,4.90
2023-05-25T03:28:03.322Z,5.40
2023-05-25T03:30:31.473Z,5.93
2023-05-25T03:32:59.397Z,4.87
2023-05-25T03:35:33.085Z,5.45
2023-05-25T03:38:01.832Z,5.50
2023-05-25T03:40:29.264Z,5.47
2023-05-25T03:42:56.617Z,5.75
2023-05-25T03:45:23.956Z,5.23
2023-05-25T03:47:51.552Z,5.40
2023-05-25T03:50:19.325Z,5.47
2023-05-25T03:52:46.804Z,5.13
2023-05-25T03:55:15.743Z,5.32
2023-05-25T03:57:43.136Z,5.10
2023-05-25T04:00:11.510Z,5.38
2023-05-25T04:02:43.007Z,5.50
2023-05-25T04:05:10.592Z,5.40
2023-05-25T04:07:38.017Z,4.93
2023-05-25T04:10:06.478Z,5.30
2023-05-25T04:12:33.809Z,5.00
2023-05-25T04:15:01.237Z,4.80
2023-05-25T04:17:29.450Z,5.00
2023-05-25T04:19:56.966Z,4.90
2023-05-25T04:22:24.270Z,4.93
2023-05-25T04:24:51.639Z,4.78
2023-05-25T04:27:20.604Z,4.93
2023-05-25T04:29:50.368Z,4.43
2023-05-25T04:32:37.578Z,4.53
2023-05-25T04:35:23.578Z,4.30
2023-05-25T04:37:51.772Z,5.10
2023-05-25T04:40:21.525Z,4.45
2023-05-25T04:42:49.328Z,4.43
2023-05-25T04:45:17.686Z,4.90
2023-05-25T04:47:46.029Z,4.67
2023-05-25T04:50:13.767Z,4.35
2023-05-25T04:52:41.317Z,4.35
2023-05-25T04:55:10.474Z,5.22
2023-05-25T04:57:41.353Z,4.68
2023-05-25T05:00:10.987Z,4.37
2023-05-25T05:02:39.902Z,4.60
2023-05-25T05:05:08.215Z,4.60
2023-05-25T05:07:36.125Z,4.30
2023-05-25T05:10:03.740Z,4.80
2023-05-25T05:12:33.365Z,4.50
2023-05-25T05:15:02.185Z,4.43
2023-05-25T05:17:30.866Z,4.40
2023-05-25T05:19:58.789Z,4.05
2023-05-25T05:22:27.361Z,4.28
2023-05-25T05:24:54.903Z,4.47
2023-05-25T05:27:26.424Z,4.18
2023-05-25T05:29:59.140Z,4.43
2023-05-25T05:32:26.750Z,4.38
2023-05-25T05:34:54.655Z,4.32
2023-05-25T05:37:40.359Z,3.90
2023-05-25T05:40:09.595Z,4.22
2023-05-25T05:42:43.467Z,4.63
2023-05-25T05:45:20.702Z,4.38
2023-05-25T05:47:48.194Z,4.22
2023-05-25T05:50:15.915Z,4.30
2023-05-25T05:52:43.915Z,3.97
2023-05-25T05:55:12.061Z,4.10
2023-05-25T05:57:42.079Z,3.83
2023-05-25T06:00:13.500Z,4.07
2023-05-25T06:02:44.658Z,3.97
2023-05-25T06:05:19.011Z,4.63
2023-05-25T06:07:48.570Z,3.85
2023-05-25T06:10:21.203Z,4.70
2023-05-25T06:12:49.671Z,4.13
2023-05-25T06:15:27.782Z,4.53
2023-05-25T06:17:58.495Z,4.30
2023-05-25T06:20:31.415Z,4.18
2023-05-25T06:22:59.412Z,4.50
2023-05-25T06:25:29.927Z,3.92
2023-05-25T06:28:01.343Z,4.20
2023-05-25T06:30:29.897Z,4.43
2023-05-25T06:32:57.973Z,4.53
2023-05-25T06:35:29.395Z,4.68
2023-05-25T06:38:47.010Z,4.35
2023-05-25T06:41:15.522Z,4.30
2023-05-25T06:43:45.157Z,4.57
2023-05-25T06:46:24.727Z,4.53
2023-05-25T06:48:52.384Z,3.88
2023-05-25T06:51:20.003Z,4.50
2023-05-25T06:53:50.949Z,4.15
2023-05-25T06:56:26.542Z,4.30
2023-05-25T06:58:55.412Z,3.70
2023-05-25T07:01:23.351Z,4.05
2023-05-25T07:03:51.429Z,4.18
2023-05-25T07:06:19.330Z,4.05
2023-05-25T07:08:47.208Z,4.10
2023-05-25T07:11:14.623Z,3.83
2023-05-25T07:13:44.931Z,3.90
2023-05-25T07:16:12.307Z,4.22
2023-05-25T07:18:43.198Z,4.45
2023-05-25T07:21:11.152Z,4.30
2023-05-25T07:23:40.793Z,4.35
2023-05-25T07:26:08.775Z,4.37
2023-05-25T07:28:36.629Z,4.22
2023-05-25T07:31:04.493Z,3.97
2023-05-25T07:33:32.375Z,4.75
2023-05-25T07:36:06.251Z,4.35
2023-05-25T07:38:34.137Z,4.00
2023-05-25T07:41:01.618Z,4.45
2023-05-25T07:43:29.436Z,4.88
2023-05-25T07:45:57.454Z,3.92
2023-05-25T07:49:12.251Z,4.03
2023-05-25T07:51:40.309Z,4.40
2023-05-25T07:54:08.058Z,4.07
2023-05-25T07:56:35.593Z,4.40
2023-05-25T07:59:02.912Z,4.07
2023-05-25T08:01:31.397Z,4.50
2023-05-25T08:03:59.213Z,4.60
2023-05-25T08:06:27.032Z,4.18
2023-05-25T08:08:54.541Z,3.90
2023-05-25T08:11:24.290Z,4.45
2023-05-25T08:13:51.882Z,4.38
2023-05-25T08:16:19.757Z,4.37
2023-05-25T08:18:47.279Z,4.40
2023-05-25T08:21:15.022Z,4.32
2023-05-25T08:23:45.385Z,4.75
2023-05-25T08:28:43.234Z,3.93
2023-05-25T08:31:10.961Z,3.95
2023-05-25T08:33:38.942Z,4.10
2023-05-25T08:36:06.909Z,3.80
2023-05-25T08:38:34.508Z,3.90
2023-05-25T08:41:06.272Z,4.73
2023-05-25T08:43:34.497Z,4.40
2023-05-25T08:46:06.316Z,4.40
2023-05-25T08:48:41.952Z,4.20
2023-05-25T08:51:11.757Z,4.13
2023-05-25T08:53:41.338Z,4.33
2023-05-25T08:56:18.568Z,4.03
2023-05-25T08:59:06.321Z,3.88
2023-05-25T09:01:38.801Z,3.65
2023-05-25T09:04:08.617Z,3.90
2023-05-25T09:06:39.599Z,3.40
2023-05-25T09:09:07.841Z,3.10
2023-05-25T09:11:38.744Z,3.60
2023-05-25T09:14:11.869Z,3.60
2023-05-25T09:16:42.651Z,4.07
2023-05-25T09:19:13.385Z,3.90
2023-05-25T09:21:44.549Z,3.83
2023-05-25T09:24:13.934Z,4.38
2023-05-25T09:26:41.648Z,3.58
2023-05-25T09:29:16.229Z,3.85
2023-05-25T09:31:47.338Z,3.80
2023-05-25T09:34:15.081Z,3.63
2023-05-25T09:36:45.609Z,3.70
2023-05-25T09:39:24.006Z,4.72
2023-05-25T09:41:51.568Z,3.80
2023-05-25T09:44:19.248Z,3.80
2023-05-25T09:46:47.026Z,3.80
2023-05-25T09:49:14.814Z,3.38
2023-05-25T09:51:42.977Z,3.45
2023-05-25T09:54:10.900Z,3.17
2023-05-25T09:56:38.727Z,3.57
2023-05-25T09:59:06.802Z,3.80
2023-05-25T10:01:37.246Z,4.13
2023-05-25T10:04:05.904Z,3.70
2023-05-25T10:06:44.124Z,3.72
2023-05-25T10:09:29.016Z,3.37
2023-05-25T10:12:20.672Z,3.90
2023-05-25T10:14:57.920Z,4.03
2023-05-25T10:17:26.213Z,4.43
2023-05-25T10:20:10.980Z,3.97
2023-05-25T10:23:00.553Z,3.60
2023-05-25T10:25:33.397Z,4.00
2023-05-25T10:28:29.867Z,4.15
2023-05-25T10:30:58.264Z,3.53
2023-05-25T10:36:10.655Z,3.53
2023-05-25T10:38:39.909Z,4.05
2023-05-25T10:41:09.232Z,4.00
2023-05-25T10:43:37.577Z,3.95
2023-05-25T10:46:06.555Z,3.80
2023-05-25T10:48:41.401Z,3.67
2023-05-25T10:51:15.419Z,3.72
2023-05-25T10:54:02.357Z,3.63
2023-05-25T10:57:25.034Z,3.60
2023-05-25T11:00:00.322Z,3.70
2023-05-25T11:02:28.784Z,3.90
2023-05-25T11:05:30.521Z,4.43
2023-05-25T11:07:59.240Z,4.00
2023-05-25T11:10:49.589Z,4.13
2023-05-25T11:13:40.385Z,4.45
2023-05-25T11:16:13.320Z,3.90
2023-05-25T11:18:57.604Z,4.00
2023-05-25T11:21:28.207Z,3.72
2023-05-25T11:24:04.395Z,4.10
2023-05-25T11:26:35.429Z,3.78
2023-05-25T11:29:13.069Z,4.40
2023-05-25T11:31:43.714Z,4.35
2023-05-25T11:34:12.090Z,3.88
2023-05-25T11:36:39.895Z,4.05
2023-05-25T11:39:20.582Z,4.13
2023-05-25T11:41:54.875Z,3.70
2023-05-25T11:44:28.234Z,4.30
2023-05-25T11:46:57.550Z,4.38
2023-05-25T11:49:26.122Z,4.70
2023-05-25T11:52:06.379Z,3.95
2023-05-25T11:54:34.150Z,4.27
2023-05-25T11:57:02.919Z,3.85
2023-05-25T11:59:32.923Z,4.00
2023-05-25T12:02:02.272Z,4.25
2023-05-25T12:04:30.237Z,3.70
2023-05-25T12:07:15.820Z,5.90
2023-05-25T12:09:43.326Z,4.88
2023-05-25T12:12:10.732Z,3.70
2023-05-25T12:14:50.307Z,3.72
2023-05-25T12:17:18.567Z,4.05
2023-05-25T12:19:46.050Z,3.90
2023-05-25T12:22:13.464Z,3.83
2023-05-25T12:24:41.222Z,4.05
2023-05-25T12:27:18.476Z,3.83
2023-05-25T12:29:47.283Z,3.63
2023-05-25T12:32:14.864Z,3.83
2023-05-25T12:34:42.191Z,4.20
2023-05-25T12:37:23.006Z,3.95
2023-05-25T12:39:51.511Z,4.05
2023-05-25T12:42:18.926Z,3.78
2023-05-25T12:44:46.895Z,3.73
2023-05-25T12:47:23.483Z,3.55
2023-05-25T12:49:54.949Z,4.20
2023-05-25T12:52:38.898Z,3.67
2023-05-25T12:55:26.217Z,3.88
2023-05-25T12:58:02.313Z,4.50
2023-05-25T13:00:37.106Z,3.42
2023-05-25T13:03:05.114Z,3.40
2023-05-25T13:05:34.205Z,3.83
2023-05-25T13:08:04.630Z,3.55
2023-05-25T13:10:32.942Z,3.87
2023-05-25T13:13:00.863Z,4.22
2023-05-25T13:15:28.575Z,4.10
2023-05-25T13:17:58.725Z,4.03
2023-05-25T13:20:27.179Z,3.78
2023-05-25T13:22:57.682Z,3.83
2023-05-25T13:25:27.816Z,4.05
2023-05-25T13:27:57.903Z,3.90
2023-05-25T13:30:26.548Z,3.90
2023-05-25T13:32:53.993Z,4.25
2023-05-25T13:35:58.242Z,4.40
2023-05-25T13:38:25.956Z,3.97
2023-05-25T13:40:53.397Z,4.22
2023-05-25T13:43:20.744Z,4.80
2023-05-25T13:45:48.076Z,4.25
2023-05-25T13:48:15.754Z,4.13
2023-05-25T13:50:45.154Z,4.43
2023-05-25T13:53:13.515Z,4.07
2023-05-25T13:55:40.820Z,3.80
2023-05-25T13:58:08.224Z,4.43
2023-05-25T14:00:36.265Z,4.30
2023-05-25T14:03:03.773Z,4.43
2023-05-25T14:05:31.598Z,4.03
2023-05-25T14:08:02.657Z,3.90
2023-05-25T14:10:30.368Z,3.85
2023-05-25T14:12:57.651Z,4.10
2023-05-25T14:15:25.650Z,3.78
2023-05-25T14:17:53.728Z,4.35
2023-05-25T14:20:26.149Z,4.15
2023-05-25T14:22:53.978Z,4.40
2023-05-25T14:25:21.361Z,4.63
2023-05-25T14:27:48.648Z,4.18
2023-05-25T14:30:16.220Z,3.95
2023-05-25T14:32:43.758Z,4.25
2023-05-25T14:35:11.148Z,4.68
2023-05-25T14:37:38.437Z,4.23
2023-05-25T14:40:06.298Z,4.65
2023-05-25T14:42:37.038Z,4.35
2023-05-25T14:45:04.897Z,3.95
2023-05-25T14:47:32.511Z,4.05
2023-05-25T14:49:59.950Z,4.50
2023-05-25T14:52:27.691Z,4.10
2023-05-25T14:54:58.462Z,4.18
2023-05-25T14:57:28.143Z,4.03
2023-05-25T14:59:56.579Z,4.00
2023-05-25T15:02:24.082Z,3.73
2023-05-25T15:04:54.027Z,4.60
2023-05-25T15:07:22.203Z,3.55
2023-05-25T15:09:49.713Z,3.88
2023-05-25T15:12:20.266Z,4.45
2023-05-25T15:14:47.860Z,4.27
2023-05-25T15:17:15.305Z,3.75
2023-05-25T15:19:42.851Z,3.97
2023-05-25T15:22:10.131Z,4.10
2023-05-25T15:24:37.719Z,3.85
2023-05-25T15:27:06.592Z,3.70
2023-05-25T15:29:34.345Z,3.95
2023-05-25T15:32:01.823Z,4.07
2023-05-25T15:34:29.571Z,4.22
2023-05-25T15:36:59.498Z,4.18
2023-05-25T15:39:27.126Z,3.80
2023-05-25T15:41:54.540Z,4.55
2023-05-25T15:44:21.976Z,3.90
2023-05-25T15:46:50.187Z,4.22
2023-05-25T15:49:20.157Z,4.03
2023-05-25T15:51:47.695Z,4.07
2023-05-25T15:54:15.351Z,4.18
2023-05-25T15:56:42.925Z,4.20
2023-05-25T15:59:12.499Z,4.03
2023-05-25T16:01:40.289Z,4.20
2023-05-25T16:04:08.319Z,4.40
2023-05-25T16:06:36.461Z,4.50
2023-05-25T16:09:04.508Z,4.25
2023-05-25T16:11:34.109Z,3.80
2023-05-25T16:14:01.728Z,4.70
2023-05-25T16:16:29.670Z,4.50
2023-05-25T16:19:02.784Z,4.57
2023-05-25T16:21:30.361Z,4.63
2023-05-25T16:23:57.718Z,4.85
2023-05-25T16:26:25.037Z,4.82
2023-05-25T16:28:52.669Z,5.00
2023-05-25T16:31:20.165Z,4.80
2023-05-25T16:33:48.022Z,4.38
2023-05-25T16:36:15.352Z,4.97
2023-05-25T16:38:42.898Z,4.35
2023-05-25T16:41:10.360Z,4.37
2023-05-25T16:43:37.825Z,4.60
2023-05-25T16:46:05.242Z,4.28
2023-05-25T16:48:32.650Z,4.88
2023-05-25T16:51:00.129Z,4.88
2023-05-25T16:53:27.392Z,4.50
2023-05-25T16:55:54.749Z,4.55
2023-05-25T16:58:24.112Z,4.68
2023-05-25T17:00:51.814Z,4.88
2023-05-25T17:03:19.103Z,5.30
2023-05-25T17:05:46.635Z,4.87
2023-05-25T17:08:13.977Z,4.82
2023-05-25T17:10:42.395Z,4.38
2023-05-25T17:13:09.726Z,4.47
2023-05-25T17:15:37.148Z,4.20
2023-05-25T17:18:04.449Z,4.80
2023-05-25T17:20:31.851Z,4.25
2023-05-25T17:22:59.121Z,4.20
2023-05-25T17:25:26.391Z,4.63
2023-05-25T17:27:53.770Z,4.43
2023-05-25T17:30:21.677Z,4.40
2023-05-25T17:32:49.058Z,4.13
2023-05-25T17:35:16.404Z,4.20
2023-05-25T17:37:43.670Z,5.00
2023-05-25T17:40:11.713Z,4.22
2023-05-25T17:42:40.631Z,4.03
2023-05-25T17:45:11.593Z,4.63
2023-05-25T17:47:38.985Z,4.10
2023-05-25T17:50:06.828Z,4.13
2023-05-25T17:52:34.200Z,4.50
2023-05-25T17:55:01.430Z,3.77
2023-05-25T17:57:28.906Z,4.22
2023-05-25T17:59:56.215Z,4.75
2023-05-25T18:02:24.000Z,4.25
2023-05-25T18:04:51.334Z,4.30
2023-05-25T18:07:20.259Z,4.33
2023-05-25T18:09:47.618Z,4.38
2023-05-25T18:12:14.930Z,4.75
2023-05-25T18:14:42.187Z,4.35
2023-05-25T18:17:09.687Z,4.32
2023-05-25T18:19:37.067Z,4.67
2023-05-25T18:22:04.515Z,4.28
2023-05-25T18:24:31.837Z,4.50
2023-05-25T18:27:03.709Z,4.60
2023-05-25T18:29:31.133Z,4.90
2023-05-25T18:31:58.635Z,4.30
2023-05-25T18:34:26.087Z,4.55
2023-05-25T18:36:53.417Z,4.30
2023-05-25T18:39:20.769Z,4.82
2023-05-25T18:41:48.110Z,5.47
2023-05-25T18:44:15.407Z,4.40
2023-05-25T18:46:44.545Z,4.72
2023-05-25T18:49:12.071Z,4.35
2023-05-25T18:51:40.243Z,4.50
2023-05-25T18:54:07.616Z,5.43
2023-05-25T18:56:34.871Z,5.17
2023-05-25T18:59:02.575Z,4.80
2023-05-25T19:01:29.971Z,4.65
2023-05-25T19:03:58.695Z,4.82
2023-05-25T19:06:27.319Z,4.75
2023-05-25T19:08:55.432Z,4.60
2023-05-25T19:11:22.906Z,5.00
2023-05-25T19:13:50.361Z,5.45
2023-05-25T19:16:17.658Z,4.75
2023-05-25T19:18:45.224Z,4.90
2023-05-25T19:21:12.499Z,5.07
2023-05-25T19:23:39.882Z,5.30
2023-05-25T19:26:07.273Z,5.63
2023-05-25T19:28:34.661Z,5.40
2023-05-25T19:31:01.926Z,5.55
2023-05-25T19:33:29.314Z,5.13
2023-05-25T19:35:56.760Z,5.32
2023-05-25T19:38:26.594Z,5.07
2023-05-25T19:40:56.311Z,5.50
2023-05-25T19:43:23.545Z,5.70
2023-05-25T19:45:51.327Z,5.60
2023-05-25T19:48:20.290Z,5.00
2023-05-25T19:50:47.582Z,5.47
2023-05-25T19:53:14.891Z,5.30
2023-05-25T19:55:42.315Z,5.43
2023-05-25T19:58:09.625Z,5.23
2023-05-25T20:00:37.011Z,5.10
2023-05-25T20:03:04.404Z,5.30
2023-05-25T20:05:31.890Z,5.45
2023-05-25T20:07:59.186Z,5.80
2023-05-25T20:10:26.575Z,5.30
2023-05-25T20:12:54.022Z,6.10
2023-05-25T20:15:21.330Z,5.65
2023-05-25T20:17:48.599Z,5.70
2023-05-25T20:20:16.165Z,5.40
2023-05-25T20:22:43.527Z,5.97
2023-05-25T20:25:11.001Z,5.45
2023-05-25T20:27:38.264Z,5.30
2023-05-25T20:30:06.662Z,5.85
2023-05-25T20:32:34.014Z,5.57
2023-05-25T20:35:01.422Z,5.70
2023-05-25T20:37:28.807Z,5.30
2023-05-25T20:39:56.261Z,5.50
2023-05-25T20:42:23.495Z,5.78
2023-05-25T20:44:50.940Z,5.28
2023-05-25T20:47:18.194Z,5.03
2023-05-25T20:49:45.959Z,5.10
2023-05-25T20:52:13.251Z,5.32
2023-05-25T20:54:44.850Z,5.15
2023-05-25T20:57:12.265Z,5.15
2023-05-25T20:59:39.624Z,5.67
2023-05-25T21:02:07.523Z,5.38
2023-05-25T21:04:34.783Z,4.90
2023-05-25T21:07:02.237Z,5.35
2023-05-25T21:09:29.513Z,5.28
2023-05-25T21:11:56.921Z,5.10
2023-05-25T21:14:24.232Z,5.28
2023-05-25T21:16:51.618Z,5.05
2023-05-25T21:19:18.924Z,5.53
2023-05-25T21:21:46.276Z,4.78
2023-05-25T21:24:13.577Z,4.63
2023-05-25T21:26:41.116Z,5.35
2023-05-25T21:29:08.391Z,5.35
2023-05-25T21:31:35.990Z,4.80
2023-05-25T21:34:03.314Z,5.07
2023-05-25T21:36:30.662Z,4.80
2023-05-25T21:38:58.127Z,5.20
2023-05-25T21:41:27.301Z,6.15
2023-05-25T21:43:54.632Z,4.78
2023-05-25T21:46:22.059Z,5.22
2023-05-25T21:48:49.427Z,5.00
2023-05-25T21:51:17.301Z,4.95
2023-05-25T21:53:44.579Z,4.70
2023-05-25T21:56:11.914Z,5.60
2023-05-25T21:58:39.188Z,5.10
2023-05-25T22:01:06.644Z,4.80
2023-05-25T22:03:34.034Z,5.22
2023-05-25T22:06:01.795Z,5.07
2023-05-25T22:08:29.016Z,5.28
2023-05-25T22:10:56.566Z,5.25
2023-05-25T22:13:23.876Z,5.07
2023-05-25T22:15:51.240Z,5.32
2023-05-25T22:18:18.449Z,5.10
2023-05-25T22:20:45.976Z,5.93
2023-05-25T22:23:13.459Z,5.10
2023-05-25T22:25:41.520Z,5.97
2023-05-25T22:28:08.989Z,5.50
2023-05-25T22:30:36.417Z,5.43
2023-05-25T22:33:04.262Z,5.68
2023-05-25T22:35:31.708Z,5.72
2023-05-25T22:37:58.961Z,5.50
2023-05-25T22:40:26.260Z,5.80
2023-05-25T22:42:53.574Z,5.70
2023-05-25T22:45:21.160Z,5.70
2023-05-25T22:47:48.552Z,5.88
2023-05-25T22:50:16.172Z,5.60
2023-05-25T22:52:43.556Z,5.60
2023-05-25T22:55:11.246Z,5.80
2023-05-25T22:57:39.312Z,5.90
2023-05-25T23:00:07.284Z,6.15
2023-05-25T23:02:34.645Z,5.40
2023-05-25T23:05:02.324Z,6.13
2023-05-25T23:07:29.612Z,5.97
2023-05-25T23:09:57.164Z,5.88
2023-05-25T23:12:24.467Z,5.82
2023-05-25T23:14:52.070Z,5.70
2023-05-25T23:17:21.206Z,5.28
2023-05-25T23:19:48.635Z,5.55
2023-05-25T23:22:16.114Z,6.20
2023-05-25T23:24:43.502Z,6.03
2023-05-25T23:27:10.867Z,5.97
2023-05-25T23:29:38.194Z,6.15
2023-05-25T23:32:05.861Z,5.97
2023-05-25T23:34:33.308Z,6.18
2023-05-25T23:37:00.664Z,5.68
2023-05-25T23:39:27.966Z,6.10
2023-05-25T23:41:55.214Z,5.70
2023-05-25T23:44:22.507Z,6.22
2023-05-25T23:46:49.784Z,6.03
2023-05-25T23:49:17.105Z,6.25
2023-05-25T23:51:44.419Z,6.40
2023-05-25T23:54:12.402Z,6.68
2023-05-25T23:56:39.709Z,6.18
2023-05-25T23:59:07.025Z,6.00
